Time;durP1;ratioP1;P1;durP2;ratioP2;P2;SDS_P1;SDS_P2;PMS_P1;PMS_P2;Temp;Humidity;BMP_temperature;BMP_pressure;BME280_temperature;BME280_humidity;BME280_pressure;Samples;Min_cycle;Max_cycle;Signal;HPM_P1;HPM_P2
2022/06/02 00:01:40;;;;;;;1.30;0.40;;;17.20;57.60;;;;;;5092964;28;20206;-57
2022/06/02 00:04:21;;;;;;;1.35;0.38;;;17.20;57.60;;;;;;5093015;28;20197;-59
2022/06/02 00:07:01;;;;;;;0.52;0.50;;;17.20;57.60;;;;;;5093337;28;20281;-58
2022/06/02 00:09:59;;;;;;;0.60;0.40;;;17.20;57.70;;;;;;5093302;28;20216;-57
2022/06/02 00:12:35;;;;;;;0.43;0.38;;;17.20;57.60;;;;;;5091406;28;20198;-57
2022/06/02 00:15:16;;;;;;;0.40;0.40;;;17.20;57.60;;;;;;5073187;28;20634;-57
2022/06/02 00:17:55;;;;;;;0.75;0.40;;;17.20;57.60;;;;;;5072762;28;20230;-57
2022/06/02 00:20:31;;;;;;;0.50;0.40;;;17.20;57.60;;;;;;5072876;28;20248;-57
2022/06/02 00:23:14;;;;;;;0.50;0.50;;;17.20;57.60;;;;;;5072889;28;20217;-58
2022/06/02 00:25:52;;;;;;;0.38;0.38;;;17.20;57.60;;;;;;5072510;28;20300;-58
2022/06/02 00:28:34;;;;;;;0.40;0.30;;;17.30;57.60;;;;;;5080168;28;20296;-57
2022/06/02 00:31:13;;;;;;;0.40;0.40;;;17.30;57.60;;;;;;5091845;28;20193;-57
2022/06/02 00:33:55;;;;;;;0.55;0.50;;;17.30;57.60;;;;;;5092495;28;20887;-58
2022/06/02 00:36:30;;;;;;;0.50;0.40;;;17.30;57.60;;;;;;5092523;28;20214;-58
2022/06/02 00:39:03;;;;;;;0.70;0.50;;;17.30;57.60;;;;;;5092465;28;20197;-58
2022/06/02 00:41:40;;;;;;;0.77;0.40;;;17.30;57.60;;;;;;5092600;28;20230;-58
2022/06/02 00:44:24;;;;;;;0.90;0.40;;;17.30;57.60;;;;;;5082731;28;20461;-57
2022/06/02 00:46:59;;;;;;;0.40;0.40;;;17.40;57.50;;;;;;5072205;28;20218;-56
2022/06/02 00:49:43;;;;;;;0.43;0.43;;;17.40;57.60;;;;;;5072255;28;20218;-54
2022/06/02 00:52:29;;;;;;;0.63;0.50;;;17.40;57.60;;;;;;5072092;28;20202;-57
2022/06/02 00:58:28;;;;;;;0.57;0.35;;;17.40;57.50;;;;;;5074481;28;20587;-58
2022/06/02 01:01:11;;;;;;;0.40;0.40;;;17.40;57.50;;;;;;5091816;28;20453;-56
2022/06/02 01:03:45;;;;;;;0.98;0.45;;;17.50;57.50;;;;;;5091844;28;20221;-55
2022/06/02 01:06:50;;;;;;;0.45;0.40;;;17.50;57.60;;;;;;5092355;28;20218;-55
2022/06/02 01:09:54;;;;;;;0.68;0.50;;;17.50;57.60;;;;;;5060261;28;20226;-57
2022/06/02 01:12:43;;;;;;;0.50;0.50;;;17.50;57.50;;;;;;5091713;28;20240;-55
2022/06/02 01:15:21;;;;;;;0.38;0.38;;;17.50;57.50;;;;;;5092022;28;20272;-57
2022/06/02 01:18:04;;;;;;;0.55;0.40;;;17.50;57.50;;;;;;5091540;28;20278;-57
2022/06/02 01:20:43;;;;;;;0.60;0.60;;;17.50;57.50;;;;;;5088493;28;20186;-57
2022/06/02 01:23:41;;;;;;;0.40;0.40;;;17.60;57.60;;;;;;5092045;28;20194;-55
2022/06/02 01:27:03;;;;;;;0.70;0.50;;;17.60;57.60;;;;;;5091765;28;20214;-57
2022/06/02 01:30:08;;;;;;;0.40;0.30;;;17.60;57.60;;;;;;5076317;28;20662;-57
2022/06/02 01:32:49;;;;;;;0.65;0.50;;;17.60;57.50;;;;;;5040271;28;20315;-56
2022/06/02 01:35:27;;;;;;;0.30;0.30;;;17.60;57.50;;;;;;5071115;28;20248;-57
2022/06/02 01:38:04;;;;;;;0.50;0.43;;;17.60;57.50;;;;;;5071420;28;20199;-57
2022/06/02 01:40:42;;;;;;;0.60;0.52;;;17.70;57.60;;;;;;5071432;28;20187;-56
2022/06/02 01:43:17;;;;;;;0.57;0.30;;;17.70;57.60;;;;;;5073039;28;20260;-54
2022/06/02 01:46:14;;;;;;;0.45;0.40;;;17.70;57.60;;;;;;5091878;28;20259;-56
2022/06/02 01:48:52;;;;;;;0.47;0.38;;;17.70;57.60;;;;;;5091585;28;20693;-56
2022/06/02 01:51:34;;;;;;;0.68;0.40;;;17.70;57.50;;;;;;5091335;28;20225;-55
2022/06/02 01:54:16;;;;;;;0.35;0.35;;;17.70;57.50;;;;;;5091079;28;20194;-54
2022/06/02 01:57:02;;;;;;;0.52;0.32;;;17.70;57.50;;;;;;5090620;28;20218;-55
2022/06/02 01:59:53;;;;;;;0.30;0.30;;;17.80;57.60;;;;;;5077219;28;20202;-53
2022/06/02 02:02:30;;;;;;;0.30;0.30;;;17.80;57.60;;;;;;5070418;28;20756;-56
2022/06/02 02:05:24;;;;;;;0.40;0.40;;;17.80;57.50;;;;;;5070294;28;20673;-54
2022/06/02 02:08:19;;;;;;;0.47;0.47;;;17.80;57.50;;;;;;5068218;28;20264;-57
2022/06/02 02:11:05;;;;;;;0.40;0.40;;;17.80;57.50;;;;;;5061103;28;20201;-55
2022/06/02 02:13:47;;;;;;;0.40;0.40;;;17.90;57.60;;;;;;5074602;28;20226;-54
2022/06/02 02:16:28;;;;;;;0.40;0.40;;;17.90;57.60;;;;;;5090202;28;20206;-54
2022/06/02 02:19:18;;;;;;;0.85;0.40;;;17.90;57.60;;;;;;5090442;28;20369;-54
2022/06/02 02:22:03;;;;;;;0.60;0.60;;;17.90;57.60;;;;;;5090811;28;20194;-54
2022/06/02 02:24:47;;;;;;;0.60;0.50;;;17.90;57.50;;;;;;5090698;28;20190;-53
2022/06/02 02:27:24;;;;;;;0.52;0.50;;;17.90;57.50;;;;;;5090555;28;20222;-54
2022/06/02 02:30:07;;;;;;;0.82;0.47;;;18.00;57.50;;;;;;5075285;28;20275;-55
2022/06/02 02:32:48;;;;;;;0.43;0.43;;;18.00;57.50;;;;;;5070060;28;20221;-54
2022/06/02 02:35:26;;;;;;;0.40;0.40;;;18.00;57.50;;;;;;5070701;28;20280;-56
2022/06/02 02:38:08;;;;;;;0.38;0.38;;;18.00;57.40;;;;;;5075649;28;20693;-55
2022/06/02 02:40:46;;;;;;;0.40;0.40;;;18.00;57.40;;;;;;5070221;28;20195;-54
2022/06/02 02:43:21;;;;;;;0.45;0.43;;;18.00;57.40;;;;;;5070133;28;20240;-56
2022/06/02 02:45:58;;;;;;;0.70;0.40;;;18.00;57.40;;;;;;5090911;28;20279;-55
2022/06/02 02:48:38;;;;;;;0.30;0.30;;;18.00;57.40;;;;;;5090429;28;20248;-53
2022/06/02 02:51:14;;;;;;;1.20;0.70;;;18.00;57.30;;;;;;5086186;28;20186;-55
2022/06/02 02:53:52;;;;;;;0.45;0.30;;;18.00;57.30;;;;;;5069599;28;20205;-55
2022/06/02 02:56:30;;;;;;;0.35;0.35;;;18.00;57.30;;;;;;5070051;28;20222;-56
2022/06/02 02:59:06;;;;;;;0.40;0.40;;;18.10;57.30;;;;;;5075519;28;20202;-55
2022/06/02 03:01:48;;;;;;;0.50;0.50;;;18.10;57.20;;;;;;5089956;28;20730;-54
2022/06/02 03:04:36;;;;;;;0.40;0.40;;;18.10;57.20;;;;;;5090090;28;20417;-55
2022/06/02 03:07:07;;;;;;;0.40;0.40;;;18.10;57.20;;;;;;5090025;28;20217;-54
2022/06/02 03:09:45;;;;;;;0.50;0.40;;;18.10;57.20;;;;;;5089824;28;20279;-55
2022/06/02 03:12:28;;;;;;;0.60;0.40;;;18.10;57.20;;;;;;5090127;28;20198;-55
2022/06/02 03:15:18;;;;;;;0.43;0.38;;;18.10;57.20;;;;;;5079228;28;20199;-55
2022/06/02 03:18:03;;;;;;;0.65;0.40;;;18.10;57.20;;;;;;5069598;28;20211;-54
2022/06/02 03:20:49;;;;;;;0.70;0.50;;;18.10;57.20;;;;;;5069769;28;20283;-54
2022/06/02 03:23:37;;;;;;;0.60;0.40;;;18.10;57.10;;;;;;5069752;28;20559;-53
2022/06/02 03:26:12;;;;;;;1.00;0.50;;;18.20;57.20;;;;;;5069356;28;20272;-54
2022/06/02 03:28:49;;;;;;;0.47;0.43;;;18.20;57.30;;;;;;5070499;28;20214;-56
2022/06/02 03:31:39;;;;;;;0.75;0.50;;;18.10;57.10;;;;;;5089597;28;20255;-54
2022/06/02 03:34:18;;;;;;;0.55;0.55;;;18.20;57.20;;;;;;5089773;28;20697;-55
2022/06/02 03:37:22;;;;;;;1.55;0.50;;;18.20;57.20;;;;;;5089433;28;20225;-54
2022/06/02 03:40:04;;;;;;;0.60;0.50;;;18.10;57.10;;;;;;5087904;28;20275;-53
2022/06/02 03:42:46;;;;;;;0.47;0.40;;;18.20;57.10;;;;;;5089759;28;20216;-54
2022/06/02 03:45:30;;;;;;;0.52;0.30;;;18.20;57.10;;;;;;5076211;28;20615;-55
2022/06/02 03:48:35;;;;;;;0.40;0.40;;;18.20;57.10;;;;;;5069541;28;20567;-54
2022/06/02 03:51:17;;;;;;;2.75;0.50;;;18.20;57.10;;;;;;5069385;28;20663;-55
2022/06/02 03:54:27;;;;;;;0.30;0.30;;;18.20;57.10;;;;;;5069463;28;20195;-55
2022/06/02 03:57:22;;;;;;;0.40;0.40;;;18.20;57.10;;;;;;5061837;28;20218;-54
2022/06/02 04:00:10;;;;;;;0.88;0.40;;;18.20;57.00;;;;;;5078826;28;20204;-54
2022/06/02 04:02:46;;;;;;;0.45;0.40;;;18.20;57.10;;;;;;5089675;28;20251;-54
2022/06/02 04:05:38;;;;;;;0.40;0.40;;;18.20;57.10;;;;;;5090732;28;20190;-54
2022/06/02 04:08:26;;;;;;;0.73;0.40;;;18.20;57.10;;;;;;5091049;28;20642;-54
2022/06/02 04:11:06;;;;;;;0.43;0.43;;;18.20;57.10;;;;;;5093439;28;20198;-54
2022/06/02 04:13:45;;;;;;;0.35;0.30;;;18.20;57.20;;;;;;5093197;28;20235;-56
2022/06/02 04:16:54;;;;;;;0.40;0.40;;;18.20;57.10;;;;;;5072819;28;20290;-53
2022/06/02 04:22:54;;;;;;;0.50;0.40;;;18.20;57.10;;;;;;5073078;28;20320;-55
2022/06/02 04:25:42;;;;;;;0.45;0.45;;;18.20;57.10;;;;;;5072968;28;20545;-56
2022/06/02 04:28:22;;;;;;;0.30;0.30;;;18.20;57.00;;;;;;5072904;28;21302;-54
2022/06/02 04:31:03;;;;;;;0.75;0.43;;;18.20;57.00;;;;;;5088602;28;20202;-56
2022/06/02 04:33:37;;;;;;;0.45;0.40;;;18.20;57.00;;;;;;5093117;28;20597;-54
2022/06/02 04:36:15;;;;;;;0.50;0.43;;;18.20;57.00;;;;;;5092318;28;20217;-55
2022/06/02 04:39:04;;;;;;;0.40;0.40;;;18.20;57.00;;;;;;5092403;28;20201;-55
2022/06/02 04:41:43;;;;;;;0.40;0.40;;;18.20;57.00;;;;;;5092871;28;20194;-55
2022/06/02 04:44:30;;;;;;;0.60;0.57;;;18.20;57.00;;;;;;5090193;28;20668;-55
2022/06/02 04:47:09;;;;;;;0.80;0.60;;;18.20;56.90;;;;;;5081344;28;20214;-55
2022/06/02 04:49:50;;;;;;;0.85;0.57;;;18.20;56.90;;;;;;5072374;28;20690;-54
2022/06/02 04:52:30;;;;;;;0.75;0.52;;;18.20;57.00;;;;;;5072164;28;20256;-54
2022/06/02 04:55:09;;;;;;;0.52;0.50;;;18.20;57.10;;;;;;5071934;28;20198;-55
2022/06/02 04:57:49;;;;;;;0.57;0.52;;;18.20;57.00;;;;;;5071717;28;20214;-56
2022/06/02 05:00:23;;;;;;;0.50;0.50;;;18.20;57.00;;;;;;5081438;28;20225;-55
2022/06/02 05:03:01;;;;;;;1.33;0.70;;;18.20;57.00;;;;;;5091855;28;20910;-54
2022/06/02 05:05:40;;;;;;;0.50;0.50;;;18.20;57.00;;;;;;5091706;28;20193;-56
2022/06/02 05:08:44;;;;;;;0.50;0.50;;;18.20;57.00;;;;;;5088299;28;20197;-55
2022/06/02 05:11:26;;;;;;;0.45;0.45;;;18.20;57.00;;;;;;5092210;28;20284;-54
2022/06/02 05:14:09;;;;;;;0.50;0.50;;;18.20;56.90;;;;;;5091886;28;20563;-55
2022/06/02 05:16:48;;;;;;;0.50;0.50;;;18.20;56.90;;;;;;5071380;28;20722;-55
2022/06/02 05:19:59;;;;;;;0.65;0.60;;;18.20;56.90;;;;;;5071709;28;20195;-53
2022/06/02 05:23:08;;;;;;;1.10;0.55;;;18.10;56.90;;;;;;5056703;28;20566;-53
2022/06/02 05:25:56;;;;;;;0.55;0.50;;;18.10;56.90;;;;;;5071497;28;20195;-56
2022/06/02 05:29:03;;;;;;;0.70;0.60;;;18.10;56.90;;;;;;5071561;28;20224;-52
2022/06/02 05:32:07;;;;;;;0.60;0.60;;;18.10;56.90;;;;;;5089945;28;20251;-55
2022/06/02 05:34:53;;;;;;;0.60;0.60;;;18.10;56.90;;;;;;5091583;28;20198;-55
2022/06/02 05:37:38;;;;;;;0.73;0.70;;;18.10;56.90;;;;;;5091306;28;20302;-56
2022/06/02 05:40:28;;;;;;;0.80;0.70;;;18.10;56.90;;;;;;5091259;28;20198;-56
2022/06/02 05:43:13;;;;;;;0.95;0.60;;;18.10;56.90;;;;;;5090938;28;20285;-55
2022/06/02 05:45:56;;;;;;;0.35;0.35;;;18.10;56.90;;;;;;5080087;28;20199;-56
2022/06/02 05:48:42;;;;;;;0.50;0.50;;;18.10;56.90;;;;;;5071508;28;20190;-55
2022/06/02 05:51:22;;;;;;;0.50;0.50;;;18.10;56.90;;;;;;5071258;28;20260;-56
2022/06/02 05:54:06;;;;;;;0.43;0.43;;;18.10;56.90;;;;;;5071039;28;20734;-54
2022/06/02 05:56:49;;;;;;;0.85;0.60;;;18.10;56.90;;;;;;5070889;28;20215;-56
2022/06/02 05:59:48;;;;;;;1.02;0.60;;;18.10;57.10;;;;;;5070745;28;20245;-55
2022/06/02 06:02:49;;;;;;;0.90;0.68;;;18.10;57.50;;;;;;5070970;28;20210;-56
2022/06/02 06:05:25;;;;;;;1.40;0.57;;;18.10;57.50;;;;;;5067830;28;20244;-56
2022/06/02 06:08:17;;;;;;;0.57;0.57;;;18.10;57.40;;;;;;5070878;28;20202;-55
2022/06/02 06:11:00;;;;;;;0.70;0.70;;;18.10;57.40;;;;;;5070309;28;20222;-55
2022/06/02 06:13:54;;;;;;;1.48;0.70;;;18.10;57.40;;;;;;5070410;28;20194;-55
2022/06/02 06:16:30;;;;;;;0.60;0.60;;;18.10;57.40;;;;;;5085626;28;20287;-56
2022/06/02 06:19:16;;;;;;;0.93;0.70;;;18.10;57.30;;;;;;5090879;28;20573;-55
2022/06/02 06:22:02;;;;;;;0.65;0.50;;;18.10;57.30;;;;;;5090406;28;20681;-56
2022/06/02 06:25:05;;;;;;;0.52;0.50;;;18.10;57.30;;;;;;5090590;28;20375;-57
2022/06/02 06:27:41;;;;;;;0.80;0.57;;;18.10;57.20;;;;;;5089894;28;20572;-56
2022/06/02 06:30:24;;;;;;;0.52;0.50;;;18.10;57.20;;;;;;5085298;28;20222;-56
2022/06/02 06:33:05;;;;;;;1.00;0.50;;;18.10;57.20;;;;;;5069425;28;20925;-57
2022/06/02 06:35:48;;;;;;;0.60;0.60;;;18.10;57.20;;;;;;5069668;28;20190;-57
2022/06/02 06:38:38;;;;;;;1.33;0.65;;;18.10;57.20;;;;;;5072151;28;20256;-57
2022/06/02 06:41:25;;;;;;;0.93;0.70;;;18.10;57.20;;;;;;5070041;28;20277;-57
2022/06/02 06:44:18;;;;;;;1.27;0.50;;;18.10;57.20;;;;;;5070088;28;20244;-56
2022/06/02 06:46:58;;;;;;;0.50;0.50;;;18.00;57.10;;;;;;5085716;28;20205;-57
2022/06/02 06:49:40;;;;;;;0.70;0.70;;;18.00;57.10;;;;;;5089974;28;20304;-54
2022/06/02 06:52:41;;;;;;;0.60;0.60;;;18.10;57.20;;;;;;5090309;28;20267;-56
2022/06/02 06:55:25;;;;;;;0.88;0.75;;;18.00;57.10;;;;;;5089657;28;20357;-57
2022/06/02 06:58:05;;;;;;;0.50;0.50;;;18.00;57.10;;;;;;5090195;28;20202;-54
2022/06/02 07:00:40;;;;;;;0.98;0.70;;;18.00;57.40;;;;;;5088944;28;20190;-54
2022/06/02 07:03:21;;;;;;;0.40;0.40;;;18.00;57.50;;;;;;5089371;28;20193;-54
2022/06/02 07:05:54;;;;;;;0.55;0.50;;;18.00;57.40;;;;;;5089513;28;20214;-58
2022/06/02 07:08:33;;;;;;;0.60;0.60;;;18.00;57.40;;;;;;5086457;28;20191;-56
2022/06/02 07:12:50;;;;;;;0.68;0.50;;;18.00;57.40;;;;;;5089696;28;20285;-57
2022/06/02 07:14:09;;;;;;;1.08;0.70;;;18.00;57.40;;;;;;5089920;28;20194;-58
2022/06/02 07:16:45;;;;;;;0.63;0.60;;;18.00;57.30;;;;;;5076284;28;20218;-56
2022/06/02 07:19:24;;;;;;;0.70;0.70;;;17.90;57.30;;;;;;5069565;28;20191;-57
2022/06/02 07:21:58;;;;;;;0.70;0.60;;;17.90;57.30;;;;;;5069500;28;20198;-56
2022/06/02 07:24:39;;;;;;;0.80;0.80;;;17.90;57.30;;;;;;5069378;28;20201;-56
2022/06/02 07:27:18;;;;;;;2.50;0.60;;;17.90;57.30;;;;;;5069434;28;20476;-56
2022/06/02 07:30:05;;;;;;;0.60;0.60;;;17.90;57.30;;;;;;5069182;28;20226;-55
2022/06/02 07:33:02;;;;;;;0.77;0.73;;;17.90;57.30;;;;;;5069543;28;20213;-56
2022/06/02 07:36:00;;;;;;;0.88;0.80;;;17.90;57.30;;;;;;5069445;28;20201;-54
2022/06/02 07:38:49;;;;;;;0.60;0.60;;;17.90;57.30;;;;;;5069534;28;20275;-56
2022/06/02 07:41:38;;;;;;;0.73;0.70;;;17.80;57.20;;;;;;5072668;28;20613;-58
2022/06/02 07:44:32;;;;;;;0.70;0.63;;;17.80;57.20;;;;;;5072575;28;20206;-55
2022/06/02 07:47:28;;;;;;;0.98;0.80;;;17.80;57.20;;;;;;5088283;28;20268;-55
2022/06/02 07:50:07;;;;;;;0.77;0.77;;;17.80;57.20;;;;;;5093398;28;20309;-55
2022/06/02 07:52:49;;;;;;;0.95;0.80;;;17.80;57.20;;;;;;5093054;28;20285;-56
2022/06/02 07:55:28;;;;;;;0.73;0.73;;;17.70;57.20;;;;;;5093221;28;20289;-55
2022/06/02 07:58:11;;;;;;;0.88;0.88;;;17.80;57.20;;;;;;5093315;28;20230;-57
2022/06/02 08:00:51;;;;;;;1.50;1.30;;;17.70;57.20;;;;;;5090118;28;20233;-56
2022/06/02 08:03:47;;;;;;;0.98;0.70;;;17.70;57.20;;;;;;5072948;28;20199;-56
2022/06/02 08:06:31;;;;;;;0.95;0.90;;;17.70;57.20;;;;;;5072371;28;20258;-56
2022/06/02 08:09:33;;;;;;;1.00;0.90;;;17.70;57.20;;;;;;5072641;28;20202;-55
2022/06/02 08:12:11;;;;;;;1.02;0.95;;;17.70;57.20;;;;;;5072780;28;20284;-55
2022/06/02 08:14:51;;;;;;;1.00;0.90;;;17.70;57.20;;;;;;5072846;28;20721;-55
2022/06/02 08:17:29;;;;;;;1.15;0.73;;;17.60;57.10;;;;;;5087856;28;20296;-56
2022/06/02 08:20:17;;;;;;;0.85;0.85;;;17.60;57.10;;;;;;5092821;28;20201;-56
2022/06/02 08:22:57;;;;;;;1.13;1.02;;;17.60;57.10;;;;;;5092798;28;20243;-56
2022/06/02 08:25:36;;;;;;;1.17;0.90;;;17.60;57.20;;;;;;5092413;28;20251;-55
2022/06/02 08:28:25;;;;;;;0.95;0.80;;;17.60;57.20;;;;;;5092550;28;20236;-55
2022/06/02 08:31:02;;;;;;;0.80;0.80;;;17.50;57.20;;;;;;5089284;28;20325;-55
2022/06/02 08:33:44;;;;;;;1.30;1.20;;;17.50;57.10;;;;;;5072592;28;20617;-56
2022/06/02 08:36:17;;;;;;;1.10;0.90;;;17.50;57.20;;;;;;5072290;28;20309;-57
2022/06/02 08:39:15;;;;;;;1.00;0.70;;;17.50;57.20;;;;;;5082455;28;20277;-56
2022/06/02 08:42:33;;;;;;;1.00;1.00;;;17.50;57.20;;;;;;5077863;28;20690;-57
2022/06/02 08:45:34;;;;;;;1.63;1.00;;;17.50;57.20;;;;;;5072514;28;20702;-55
2022/06/02 08:48:40;;;;;;;0.80;0.80;;;17.50;57.20;;;;;;5092158;28;20232;-55
2022/06/02 08:51:50;;;;;;;0.93;0.88;;;17.50;57.20;;;;;;5091159;28;20346;-55
2022/06/02 08:55:00;;;;;;;1.05;0.90;;;17.50;57.20;;;;;;5086049;28;20645;-54
2022/06/02 08:58:16;;;;;;;1.38;0.95;;;17.40;57.20;;;;;;5079609;28;20777;-55
2022/06/02 09:01:03;;;;;;;1.35;0.90;;;17.40;57.50;;;;;;4989725;28;20193;-55
2022/06/02 09:04:07;;;;;;;1.00;1.00;;;17.40;57.80;;;;;;5092316;28;20189;-57
2022/06/02 09:07:11;;;;;;;1.15;1.00;;;17.40;57.90;;;;;;5091985;28;20222;-57
2022/06/02 09:10:12;;;;;;;1.10;1.00;;;17.40;57.90;;;;;;5092193;28;20205;-54
2022/06/02 09:13:37;;;;;;;1.10;1.00;;;17.40;58.00;;;;;;5092034;28;20832;-56
2022/06/02 09:16:31;;;;;;;1.00;0.90;;;17.40;58.00;;;;;;5041704;28;20277;-56
2022/06/02 09:19:37;;;;;;;1.27;0.90;;;17.40;57.90;;;;;;5073460;28;20195;-56
2022/06/02 09:22:35;;;;;;;1.38;1.10;;;17.30;58.00;;;;;;5071473;28;20236;-55
2022/06/02 09:25:23;;;;;;;1.30;1.00;;;17.30;58.00;;;;;;5069721;28;20191;-56
2022/06/02 09:28:25;;;;;;;1.73;0.93;;;17.30;58.00;;;;;;5071551;28;20191;-57
2022/06/02 09:31:22;;;;;;;1.08;0.98;;;17.30;58.10;;;;;;5055865;28;20698;-57
2022/06/02 09:34:29;;;;;;;1.20;1.00;;;17.30;58.10;;;;;;5071006;28;20230;-56
2022/06/02 09:37:39;;;;;;;0.88;0.80;;;17.30;58.20;;;;;;5055548;28;20211;-53
2022/06/02 09:40:24;;;;;;;1.10;0.98;;;17.40;58.20;;;;;;5023941;28;20240;-56
2022/06/02 09:43:17;;;;;;;1.58;1.00;;;17.30;58.20;;;;;;5070798;28;20191;-56
2022/06/02 09:46:04;;;;;;;1.60;1.05;;;17.30;58.30;;;;;;5071091;28;20222;-55
2022/06/02 09:48:51;;;;;;;1.48;1.10;;;17.30;58.30;;;;;;5070583;28;20244;-56
2022/06/02 09:51:46;;;;;;;1.17;0.98;;;17.30;58.40;;;;;;5070575;28;20219;-56
2022/06/02 09:54:54;;;;;;;2.47;1.00;;;17.30;58.70;;;;;;5070668;28;20665;-52
2022/06/02 09:57:57;;;;;;;1.02;0.80;;;17.30;58.70;;;;;;5037036;28;20240;-57
2022/06/02 10:00:53;;;;;;;1.27;1.02;;;17.30;58.70;;;;;;5081480;28;20646;-56
2022/06/02 10:03:56;;;;;;;1.15;0.98;;;17.30;58.70;;;;;;5086245;28;20228;-56
2022/06/02 10:06:58;;;;;;;1.30;1.05;;;17.30;58.60;;;;;;5088488;28;20299;-57
2022/06/02 10:09:41;;;;;;;1.10;0.90;;;17.30;58.60;;;;;;5056197;28;20190;-57
2022/06/02 10:15:29;;;;;;;1.58;1.13;;;17.30;58.60;;;;;;5089300;28;20194;-56
2022/06/02 10:18:16;;;;;;;1.50;1.20;;;17.30;58.60;;;;;;5088677;28;20202;-57
2022/06/02 10:21:10;;;;;;;1.38;1.15;;;17.30;58.50;;;;;;5088463;28;20190;-58
2022/06/02 10:24:03;;;;;;;1.52;1.10;;;17.30;58.50;;;;;;5084826;28;20195;-56
2022/06/02 10:26:46;;;;;;;1.98;0.93;;;17.30;58.40;;;;;;5088423;28;20682;-56
2022/06/02 10:29:55;;;;;;;1.95;1.10;;;17.30;58.40;;;;;;5089447;28;20190;-56
2022/06/02 10:33:01;;;;;;;1.50;1.10;;;17.30;58.40;;;;;;5088452;28;20221;-56
2022/06/02 10:36:10;;;;;;;1.35;1.08;;;17.30;58.40;;;;;;5069672;28;20610;-55
2022/06/02 10:38:52;;;;;;;2.55;1.20;;;17.30;58.30;;;;;;5088644;28;20256;-56
2022/06/02 10:42:02;;;;;;;1.15;1.00;;;17.30;58.30;;;;;;5086139;28;20263;-56
2022/06/02 10:44:59;;;;;;;1.13;1.02;;;17.30;58.40;;;;;;5087059;28;20987;-55
2022/06/02 10:48:08;;;;;;;1.42;1.15;;;17.30;58.30;;;;;;5088492;28;20681;-55
2022/06/02 10:50:59;;;;;;;1.63;0.95;;;17.30;58.30;;;;;;5088910;28;20639;-56
2022/06/02 10:54:03;;;;;;;1.20;1.10;;;17.30;58.40;;;;;;5086579;28;20190;-56
2022/06/02 10:56:56;;;;;;;1.15;1.05;;;17.30;58.40;;;;;;5088462;28;20213;-55
2022/06/02 11:00:16;;;;;;;1.75;1.00;;;17.30;58.40;;;;;;5088355;28;20222;-55
2022/06/02 11:03:27;;;;;;;1.65;1.20;;;17.30;58.40;;;;;;5086766;28;20202;-54
2022/06/02 11:06:29;;;;;;;1.67;1.10;;;17.30;58.40;;;;;;5071245;28;20736;-57
2022/06/02 11:09:40;;;;;;;2.90;1.20;;;17.30;58.40;;;;;;5075305;28;20189;-55
2022/06/02 11:12:46;;;;;;;1.55;1.27;;;17.30;58.40;;;;;;5048062;28;20272;-56
2022/06/02 11:15:52;;;;;;;1.80;1.23;;;17.30;58.30;;;;;;5088228;28;20239;-55
2022/06/02 11:18:52;;;;;;;1.63;1.05;;;17.30;58.30;;;;;;5086212;28;20270;-56
2022/06/02 11:21:57;;;;;;;1.67;1.10;;;17.30;58.30;;;;;;5088338;28;20216;-55
2022/06/02 11:25:26;;;;;;;1.73;1.33;;;17.30;58.30;;;;;;5088234;28;20650;-56
2022/06/02 11:28:36;;;;;;;1.27;0.98;;;17.30;58.30;;;;;;5004963;28;20415;-58
2022/06/02 11:31:40;;;;;;;1.13;1.00;;;17.20;58.30;;;;;;5020617;28;20630;-58
2022/06/02 11:34:34;;;;;;;1.58;1.17;;;17.20;58.30;;;;;;5087057;28;20231;-54
2022/06/02 11:37:35;;;;;;;2.00;1.30;;;17.20;58.30;;;;;;5087853;28;20214;-56
2022/06/02 11:40:36;;;;;;;1.58;1.20;;;17.20;58.30;;;;;;5087883;28;20193;-56
2022/06/02 11:43:24;;;;;;;1.50;1.10;;;17.20;58.40;;;;;;5076290;28;20228;-56
2022/06/02 11:46:41;;;;;;;1.27;1.00;;;17.20;58.40;;;;;;5088799;28;20240;-58
2022/06/02 11:49:36;;;;;;;2.05;1.27;;;17.20;58.40;;;;;;5087783;28;20243;-57
2022/06/02 11:52:23;;;;;;;1.95;1.13;;;17.20;58.40;;;;;;5087522;28;20334;-57
2022/06/02 11:55:18;;;;;;;1.80;1.15;;;17.20;58.40;;;;;;5076379;28;20264;-56
2022/06/02 11:58:32;;;;;;;1.42;1.33;;;17.20;58.40;;;;;;5064988;28;20219;-56
2022/06/02 12:01:48;;;;;;;1.65;1.33;;;17.20;58.40;;;;;;5063519;28;20249;-58
2022/06/02 12:04:52;;;;;;;1.60;1.20;;;17.20;58.40;;;;;;5069712;28;20199;-58
2022/06/02 12:07:54;;;;;;;2.30;1.10;;;17.20;58.40;;;;;;5069266;28;20214;-58
2022/06/02 12:11:04;;;;;;;2.20;1.10;;;17.20;58.40;;;;;;5064535;28;20613;-58
2022/06/02 12:13:55;;;;;;;1.85;1.25;;;17.20;58.40;;;;;;5033251;28;20243;-57
2022/06/02 12:16:58;;;;;;;1.30;1.00;;;17.20;58.40;;;;;;5089193;28;20218;-57
2022/06/02 12:19:54;;;;;;;1.83;1.17;;;17.20;59.00;;;;;;5078870;28;20198;-56
2022/06/02 12:22:55;;;;;;;2.65;1.50;;;17.20;58.40;;;;;;5089135;28;20251;-57
2022/06/02 12:26:01;;;;;;;1.20;1.10;;;17.10;58.40;;;;;;5074333;28;20203;-57
2022/06/02 12:29:08;;;;;;;1.33;1.10;;;17.20;58.40;;;;;;5070320;28;20194;-55
2022/06/02 12:32:15;;;;;;;1.30;1.15;;;17.20;58.40;;;;;;5068393;28;20254;-57
2022/06/02 12:35:20;;;;;;;1.30;1.20;;;17.10;58.40;;;;;;5072892;28;20194;-57
2022/06/02 12:38:27;;;;;;;1.73;1.20;;;17.10;58.50;;;;;;5059438;28;20229;-57
2022/06/02 12:41:28;;;;;;;1.20;1.10;;;17.10;58.40;;;;;;5080208;28;20210;-57
2022/06/02 12:44:34;;;;;;;1.85;1.25;;;17.10;58.50;;;;;;5092762;28;20194;-57
2022/06/02 12:47:45;;;;;;;2.53;1.10;;;17.10;58.50;;;;;;5093134;28;20264;-57
2022/06/02 12:50:37;;;;;;;1.42;1.20;;;17.10;58.40;;;;;;5088252;28;20654;-56
2022/06/02 12:53:39;;;;;;;1.30;1.02;;;17.10;58.40;;;;;;5092697;28;20251;-55
2022/06/02 12:56:39;;;;;;;1.00;0.90;;;17.10;58.50;;;;;;5074586;28;20218;-56
2022/06/02 12:59:36;;;;;;;1.33;1.10;;;17.10;58.40;;;;;;5072310;28;20244;-55
2022/06/02 13:02:13;;;;;;;1.35;0.98;;;17.10;58.40;;;;;;5071839;28;20203;-56
2022/06/02 13:05:15;;;;;;;1.42;1.20;;;17.10;58.40;;;;;;5072147;28;20195;-54
2022/06/02 13:08:33;;;;;;;1.30;1.13;;;17.10;58.50;;;;;;5073839;28;20206;-54
2022/06/02 13:11:29;;;;;;;2.42;1.27;;;17.10;58.50;;;;;;5088716;28;20252;-55
2022/06/02 13:14:30;;;;;;;1.33;1.15;;;17.10;58.50;;;;;;5092016;28;20194;-54
2022/06/02 13:17:20;;;;;;;1.42;1.13;;;17.10;58.50;;;;;;5091919;28;20221;-55
2022/06/02 13:20:27;;;;;;;2.03;1.27;;;17.10;58.50;;;;;;5091683;28;20252;-55
2022/06/02 13:23:35;;;;;;;1.65;1.20;;;17.10;58.50;;;;;;5091994;28;20190;-55
2022/06/02 13:26:31;;;;;;;1.50;1.17;;;17.10;58.50;;;;;;5073529;28;20215;-56
2022/06/02 13:29:24;;;;;;;2.35;1.38;;;17.10;58.50;;;;;;5071489;28;20191;-56
2022/06/02 13:32:31;;;;;;;1.67;1.13;;;17.10;58.50;;;;;;5071309;28;20268;-55
2022/06/02 13:35:45;;;;;;;2.17;1.35;;;17.10;58.50;;;;;;5071379;28;20194;-55
2022/06/02 13:38:49;;;;;;;2.17;0.98;;;17.10;59.10;;;;;;5071279;28;20197;-57
2022/06/02 13:41:42;;;;;;;1.42;1.00;;;17.10;58.50;;;;;;5084115;28;20194;-56
2022/06/02 13:44:52;;;;;;;1.10;1.00;;;17.10;58.50;;;;;;5090954;28;20229;-56
2022/06/02 13:48:08;;;;;;;1.30;0.93;;;17.10;58.50;;;;;;5044140;28;20214;-55
2022/06/02 13:51:23;;;;;;;1.15;0.95;;;17.10;58.50;;;;;;5091147;28;20189;-56
2022/06/02 13:58:00;;;;;;;1.65;1.05;;;17.10;58.50;;;;;;5048448;28;20215;-56
2022/06/02 14:00:50;;;;;;;1.20;1.10;;;17.10;58.50;;;;;;5048214;28;20296;-56
2022/06/02 14:04:05;;;;;;;1.10;1.00;;;17.10;58.50;;;;;;5085032;28;20209;-57
2022/06/02 14:06:43;;;;;;;1.20;0.90;;;17.00;58.50;;;;;;5091256;28;20210;-55
2022/06/02 14:09:38;;;;;;;1.60;1.10;;;17.00;58.50;;;;;;5091022;28;20194;-56
2022/06/02 14:12:33;;;;;;;1.00;0.88;;;17.10;58.60;;;;;;5070461;28;20311;-56
2022/06/02 14:15:27;;;;;;;1.55;1.02;;;17.00;58.60;;;;;;5070304;28;20191;-56
2022/06/02 14:18:16;;;;;;;0.93;0.80;;;17.00;58.50;;;;;;5070557;28;20199;-58
2022/06/02 14:20:59;;;;;;;1.02;0.93;;;17.00;59.20;;;;;;5070656;28;20646;-57
2022/06/02 14:23:43;;;;;;;1.95;1.05;;;17.10;58.60;;;;;;5070579;28;20217;-56
2022/06/02 14:26:23;;;;;;;1.55;1.02;;;17.00;58.50;;;;;;5069985;28;20214;-55
2022/06/02 14:29:04;;;;;;;1.42;0.95;;;17.00;58.50;;;;;;5070640;28;20194;-56
2022/06/02 14:31:44;;;;;;;1.40;1.00;;;17.10;58.60;;;;;;5070558;28;20218;-56
2022/06/02 14:34:22;;;;;;;1.05;0.95;;;17.10;58.60;;;;;;5070420;28;20271;-54
2022/06/02 14:37:04;;;;;;;1.58;1.08;;;17.00;58.50;;;;;;5081564;28;20586;-56
2022/06/02 14:39:47;;;;;;;2.15;1.05;;;17.00;58.50;;;;;;5090022;28;20271;-55
2022/06/02 14:43:06;;;;;;;1.00;0.90;;;17.00;58.50;;;;;;5070326;28;20547;-55
2022/06/02 14:46:16;;;;;;;0.80;0.80;;;17.00;58.50;;;;;;5060267;28;20682;-55
2022/06/02 14:49:13;;;;;;;1.25;0.85;;;17.00;58.50;;;;;;5069920;28;20199;-54
2022/06/02 14:51:47;;;;;;;1.90;1.05;;;17.00;58.50;;;;;;5060391;28;20289;-55
2022/06/02 14:54:41;;;;;;;1.25;0.80;;;17.00;58.60;;;;;;5072784;28;20198;-55
2022/06/02 14:57:24;;;;;;;1.20;0.90;;;17.00;58.70;;;;;;5069792;28;20225;-55
2022/06/02 15:00:15;;;;;;;1.08;0.80;;;17.00;58.70;;;;;;5069915;28;20248;-56
2022/06/02 15:03:15;;;;;;;1.20;0.90;;;17.00;58.70;;;;;;5071925;28;20217;-56